createdAt,value
2023-05-24T00:18:57.149Z,19.37
2023-05-24T00:19:51.948Z,19.47
2023-05-24T00:20:51.981Z,19.60
2023-05-24T00:21:51.924Z,19.71
2023-05-24T00:22:51.921Z,19.75
2023-05-24T00:23:52.179Z,19.66
2023-05-24T00:24:51.950Z,19.65
2023-05-24T00:25:51.994Z,19.71
2023-05-24T00:26:52.069Z,19.68
2023-05-24T00:27:52.123Z,19.73
2023-05-24T00:28:52.654Z,19.75
2023-05-24T00:29:52.633Z,19.75
2023-05-24T00:30:53.148Z,19.82
2023-05-24T00:31:52.341Z,19.78
2023-05-24T00:32:52.377Z,19.73
2023-05-24T00:33:52.324Z,19.73
2023-05-24T00:34:52.390Z,19.85
2023-05-24T00:35:52.421Z,19.88
2023-05-24T00:36:52.451Z,20.00
2023-05-24T00:37:52.463Z,20.08
2023-05-24T00:38:52.490Z,20.12
2023-05-24T00:39:52.509Z,20.20
2023-05-24T00:40:52.526Z,20.22
2023-05-24T00:41:52.536Z,20.22
2023-05-24T00:42:52.561Z,20.23
2023-05-24T00:43:52.590Z,20.29
2023-05-24T00:44:52.648Z,20.15
2023-05-24T00:45:52.703Z,20.22
2023-05-24T00:46:52.704Z,19.85
2023-05-24T00:47:52.790Z,19.97
2023-05-24T00:48:52.738Z,20.05
2023-05-24T00:49:52.790Z,19.96
2023-05-24T00:50:52.811Z,19.91
2023-05-24T00:51:52.801Z,19.92
2023-05-24T00:52:52.830Z,19.96
2023-05-24T00:53:52.851Z,19.97
2023-05-24T00:54:52.864Z,19.91
2023-05-24T00:55:52.862Z,19.99
2023-05-24T00:56:52.908Z,19.91
2023-05-24T00:57:52.905Z,19.99
2023-05-24T00:58:52.926Z,20.08
2023-05-24T00:59:52.981Z,20.12
2023-05-24T01:00:53.043Z,20.09
2023-05-24T01:01:53.188Z,20.11
2023-05-24T01:02:53.177Z,20.19
2023-05-24T01:03:53.186Z,20.17
2023-05-24T01:04:53.169Z,20.20
2023-05-24T01:05:53.197Z,20.24
2023-05-24T01:06:53.220Z,20.23
2023-05-24T01:07:53.229Z,20.17
2023-05-24T01:08:53.232Z,20.16
2023-05-24T01:09:53.257Z,20.19
2023-05-24T01:10:53.289Z,20.23
2023-05-24T01:11:53.312Z,20.23
2023-05-24T01:12:53.374Z,20.27
2023-05-24T01:13:53.419Z,20.24
2023-05-24T01:14:53.499Z,20.32
2023-05-24T01:15:53.531Z,20.34
2023-05-24T01:16:53.554Z,20.33
2023-05-24T01:17:53.636Z,20.39
2023-05-24T01:18:53.648Z,20.42
2023-05-24T01:19:53.737Z,20.20
2023-05-24T01:20:53.683Z,20.23
2023-05-24T01:21:53.732Z,20.32
2023-05-24T01:22:53.738Z,20.33
2023-05-24T01:23:53.746Z,20.15
2023-05-24T01:24:53.806Z,20.24
2023-05-24T01:25:54.175Z,20.17
2023-05-24T01:26:53.773Z,20.22
2023-05-24T01:27:53.799Z,20.20
2023-05-24T01:28:53.812Z,20.23
2023-05-24T01:29:53.837Z,20.22
2023-05-24T01:30:53.875Z,20.20
2023-05-24T01:31:53.937Z,20.20
2023-05-24T01:32:53.921Z,20.23
2023-05-24T01:33:53.878Z,20.23
2023-05-24T01:34:53.892Z,20.24
2023-05-24T01:35:53.909Z,20.17
2023-05-24T01:36:53.916Z,20.17
2023-05-24T01:37:53.952Z,20.13
2023-05-24T01:38:53.956Z,20.09
2023-05-24T01:39:53.959Z,20.06
2023-05-24T01:40:53.998Z,20.15
2023-05-24T01:41:53.995Z,20.15
2023-05-24T01:42:54.032Z,20.19
2023-05-24T01:43:54.022Z,20.12
2023-05-24T01:44:54.015Z,20.16
2023-05-24T01:45:54.040Z,20.09
2023-05-24T01:46:54.085Z,20.17
2023-05-24T01:47:54.130Z,20.17
2023-05-24T01:48:54.081Z,20.15
2023-05-24T01:49:54.109Z,20.20
2023-05-24T01:50:54.155Z,20.22
2023-05-24T01:51:54.185Z,20.23
2023-05-24T01:52:54.173Z,20.20
2023-05-24T01:53:54.221Z,20.23
2023-05-24T01:54:54.251Z,20.26
2023-05-24T01:55:54.288Z,20.11
2023-05-24T01:56:54.329Z,20.19
2023-05-24T01:57:54.253Z,20.20
2023-05-24T01:58:54.298Z,20.20
2023-05-24T01:59:54.347Z,20.12
2023-05-24T02:00:54.423Z,20.13
2023-05-24T02:01:54.432Z,20.03
2023-05-24T02:02:54.538Z,19.96
2023-05-24T02:03:54.455Z,19.97
2023-05-24T02:04:54.529Z,19.65
2023-05-24T02:05:54.505Z,19.64
2023-05-24T02:06:54.535Z,19.71
2023-05-24T02:07:54.554Z,19.31
2023-05-24T02:08:54.534Z,18.94
2023-05-24T02:09:54.571Z,18.96
2023-05-24T02:10:54.621Z,18.84
2023-05-24T02:11:54.616Z,18.94
2023-05-24T02:12:54.634Z,19.04
2023-05-24T02:13:54.642Z,18.96
2023-05-24T02:14:54.658Z,19.03
2023-05-24T02:15:54.691Z,18.60
2023-05-24T02:16:54.711Z,18.87
2023-05-24T02:17:54.787Z,18.83
2023-05-24T02:18:54.657Z,18.94
2023-05-24T02:19:54.709Z,18.93
2023-05-24T02:20:54.711Z,18.94
2023-05-24T02:21:54.725Z,19.03
2023-05-24T02:22:54.734Z,19.13
2023-05-24T02:23:54.725Z,19.24
2023-05-24T02:24:54.753Z,19.35
2023-05-24T02:25:54.741Z,19.47
2023-05-24T02:26:54.759Z,19.55
2023-05-24T02:27:54.800Z,19.64
2023-05-24T02:28:54.785Z,19.66
2023-05-24T02:29:54.789Z,19.69
2023-05-24T02:30:54.874Z,19.75
2023-05-24T02:31:54.892Z,19.78
2023-05-24T02:32:54.912Z,19.85
2023-05-24T02:33:54.891Z,19.88
2023-05-24T02:34:54.934Z,19.93
2023-05-24T02:35:54.934Z,19.93
2023-05-24T02:36:54.924Z,19.88
2023-05-24T02:37:54.961Z,19.96
2023-05-24T02:38:54.952Z,19.92
2023-05-24T02:39:54.961Z,19.91
2023-05-24T02:40:55.011Z,19.89
2023-05-24T02:41:55.015Z,19.92
2023-05-24T02:42:55.025Z,19.81
2023-05-24T02:43:55.058Z,19.66
2023-05-24T02:44:55.068Z,19.23
2023-05-24T02:45:55.108Z,19.30
2023-05-24T02:46:55.112Z,19.35
2023-05-24T02:47:55.152Z,19.48
2023-05-24T02:48:55.194Z,19.30
2023-05-24T02:49:55.231Z,19.17
2023-05-24T02:50:55.235Z,19.27
2023-05-24T02:51:55.263Z,19.38
2023-05-24T02:52:55.297Z,19.31
2023-05-24T02:53:55.327Z,19.31
2023-05-24T02:54:55.360Z,19.39
2023-05-24T02:55:55.406Z,19.51
2023-05-24T02:56:55.440Z,19.62
2023-05-24T02:57:55.512Z,19.62
2023-05-24T02:58:55.539Z,19.69
2023-05-24T02:59:55.579Z,19.72
2023-05-24T03:00:55.619Z,19.69
2023-05-24T03:01:55.706Z,19.72
2023-05-24T03:02:55.865Z,19.71
2023-05-24T03:03:55.773Z,19.71
2023-05-24T03:04:55.778Z,19.45
2023-05-24T03:05:55.809Z,19.50
2023-05-24T03:06:55.851Z,19.55
2023-05-24T03:07:55.847Z,19.48
2023-05-24T03:08:55.899Z,19.48
2023-05-24T03:09:55.906Z,19.41
2023-05-24T03:10:55.954Z,19.07
2023-05-24T03:11:55.975Z,18.86
2023-05-24T03:12:56.003Z,18.80
2023-05-24T03:13:56.028Z,19.01
2023-05-24T03:14:56.070Z,19.10
2023-05-24T03:15:56.110Z,19.24
2023-05-24T03:16:56.088Z,19.32
2023-05-24T03:17:56.136Z,19.42
2023-05-24T03:18:56.152Z,19.51
2023-05-24T03:19:56.171Z,19.58
2023-05-24T03:20:56.142Z,19.65
2023-05-24T03:21:56.159Z,19.69
2023-05-24T03:22:56.160Z,19.72
2023-05-24T03:23:56.228Z,19.81
2023-05-24T03:24:56.265Z,19.81
2023-05-24T03:25:56.285Z,19.75
2023-05-24T03:26:56.310Z,19.71
2023-05-24T03:27:56.322Z,19.75
2023-05-24T03:28:56.377Z,19.76
2023-05-24T03:29:56.417Z,19.81
2023-05-24T03:30:56.493Z,19.78
2023-05-24T03:31:56.527Z,19.79
2023-05-24T03:32:56.507Z,19.65
2023-05-24T03:33:56.488Z,19.66
2023-05-24T03:34:56.528Z,19.75
2023-05-24T03:35:56.580Z,19.75
2023-05-24T03:36:56.597Z,19.79
2023-05-24T03:37:56.621Z,19.83
2023-05-24T03:38:56.641Z,19.83
2023-05-24T03:39:56.704Z,19.88
2023-05-24T03:40:56.722Z,19.88
2023-05-24T03:41:56.744Z,19.86
2023-05-24T03:42:56.774Z,19.91
2023-05-24T03:43:56.827Z,19.96
2023-05-24T03:44:56.878Z,19.82
2023-05-24T03:45:56.891Z,19.78
2023-05-24T03:46:56.859Z,19.60
2023-05-24T03:47:56.881Z,19.34
2023-05-24T03:48:56.906Z,19.54
2023-05-24T03:49:56.941Z,19.60
2023-05-24T03:50:57.013Z,19.54
2023-05-24T03:51:57.029Z,19.65
2023-05-24T03:52:57.049Z,19.69
2023-05-24T03:53:57.121Z,19.64
2023-05-24T03:54:57.154Z,19.71
2023-05-24T03:55:57.180Z,19.68
2023-05-24T03:56:57.219Z,19.50
2023-05-24T03:57:57.242Z,19.24
2023-05-24T03:58:57.306Z,19.24
2023-05-24T03:59:57.307Z,19.38
2023-05-24T04:00:57.361Z,19.45
2023-05-24T04:01:57.419Z,19.48
2023-05-24T04:02:57.446Z,19.44
2023-05-24T04:03:57.425Z,19.55
2023-05-24T04:04:57.460Z,19.58
2023-05-24T04:05:57.497Z,19.61
2023-05-24T04:06:57.517Z,19.66
2023-05-24T04:07:57.535Z,19.72
2023-05-24T04:08:57.560Z,19.69
2023-05-24T04:09:57.611Z,19.75
2023-05-24T04:10:57.625Z,19.69
2023-05-24T04:11:57.654Z,19.64
2023-05-24T04:12:57.683Z,19.73
2023-05-24T04:13:57.791Z,19.76
2023-05-24T04:14:57.749Z,19.78
2023-05-24T04:15:57.783Z,19.79
2023-05-24T04:16:57.840Z,19.79
2023-05-24T04:17:57.942Z,19.81
2023-05-24T04:18:57.954Z,19.72
2023-05-24T04:19:57.933Z,19.79
2023-05-24T04:20:57.936Z,19.81
2023-05-24T04:21:58.017Z,19.86
2023-05-24T04:22:58.065Z,19.85
2023-05-24T04:23:58.074Z,19.91
2023-05-24T04:24:58.136Z,19.92
2023-05-24T04:25:58.133Z,19.91
2023-05-24T04:26:58.199Z,19.88
2023-05-24T04:27:58.201Z,19.91
2023-05-24T04:28:58.321Z,19.86
2023-05-24T04:29:58.232Z,19.89
2023-05-24T04:30:58.316Z,19.93
2023-05-24T04:31:58.279Z,19.92
2023-05-24T04:32:58.386Z,19.92
2023-05-24T04:33:58.329Z,19.89
2023-05-24T04:34:58.340Z,19.92
2023-05-24T04:35:58.367Z,19.89
2023-05-24T04:36:58.397Z,19.86
2023-05-24T04:37:58.455Z,19.86
2023-05-24T04:38:58.457Z,19.83
2023-05-24T04:39:58.524Z,19.69
2023-05-24T04:40:58.546Z,19.73
2023-05-24T04:41:58.568Z,19.73
2023-05-24T04:42:58.619Z,19.73
2023-05-24T04:43:58.676Z,19.76
2023-05-24T04:44:58.725Z,19.82
2023-05-24T04:45:58.758Z,19.73
2023-05-24T04:46:58.889Z,19.82
2023-05-24T04:47:58.899Z,19.58
2023-05-24T04:48:58.838Z,19.68
2023-05-24T04:49:59.216Z,19.73
2023-05-24T04:50:58.895Z,19.71
2023-05-24T04:51:58.905Z,19.78
2023-05-24T04:52:58.928Z,19.72
2023-05-24T04:53:58.950Z,19.82
2023-05-24T04:54:59.214Z,19.86
2023-05-24T04:55:59.011Z,19.88
2023-05-24T04:56:59.050Z,19.86
2023-05-24T04:57:59.076Z,19.83
2023-05-24T04:58:59.080Z,19.89
2023-05-24T04:59:59.107Z,19.93
2023-05-24T05:00:59.117Z,19.96
2023-05-24T05:01:59.212Z,19.97
2023-05-24T05:02:59.318Z,20.06
2023-05-24T05:03:59.237Z,20.09
2023-05-24T05:04:59.235Z,20.11
2023-05-24T05:05:59.273Z,20.03
2023-05-24T05:06:59.267Z,20.05
2023-05-24T05:07:59.281Z,20.11
2023-05-24T05:08:59.303Z,20.12
2023-05-24T05:09:59.341Z,20.11
2023-05-24T05:10:59.366Z,20.08
2023-05-24T05:11:59.415Z,20.03
2023-05-24T05:12:59.457Z,20.02
2023-05-24T05:13:59.474Z,20.09
2023-05-24T05:14:59.498Z,20.09
2023-05-24T05:15:59.569Z,20.06
2023-05-24T05:16:59.573Z,20.09
2023-05-24T05:17:59.620Z,20.11
2023-05-24T05:18:59.609Z,20.06
2023-05-24T05:19:59.682Z,20.12
2023-05-24T05:20:59.668Z,20.11
2023-05-24T05:21:59.694Z,20.15
2023-05-24T05:22:59.742Z,20.16
2023-05-24T05:23:59.801Z,20.17
2023-05-24T05:24:59.933Z,20.20
2023-05-24T05:25:59.859Z,20.26
2023-05-24T05:26:59.865Z,20.27
2023-05-24T05:27:59.882Z,20.30
2023-05-24T05:28:59.925Z,20.23
2023-05-24T05:29:59.990Z,20.27
2023-05-24T05:30:59.989Z,20.26
2023-05-24T05:32:00.752Z,20.30
2023-05-24T05:33:00.198Z,20.34
2023-05-24T05:34:00.741Z,20.23
2023-05-24T05:35:00.247Z,20.26
2023-05-24T05:36:00.262Z,20.30
2023-05-24T05:37:00.171Z,20.29
2023-05-24T05:38:00.203Z,20.32
2023-05-24T05:39:00.193Z,20.34
2023-05-24T05:40:00.259Z,20.36
2023-05-24T05:41:00.270Z,20.33
2023-05-24T05:42:00.299Z,20.29
2023-05-24T05:43:00.318Z,20.22
2023-05-24T05:44:00.374Z,20.27
2023-05-24T05:45:00.370Z,20.24
2023-05-24T05:46:00.488Z,20.23
2023-05-24T05:47:00.424Z,20.19
2023-05-24T05:48:00.488Z,20.17
2023-05-24T05:49:00.499Z,20.26
2023-05-24T05:50:00.541Z,20.17
2023-05-24T05:51:01.291Z,20.22
2023-05-24T05:52:00.663Z,20.19
2023-05-24T05:53:00.722Z,20.12
2023-05-24T05:54:00.683Z,20.22
2023-05-24T05:55:00.858Z,20.23
2023-05-24T05:56:00.763Z,20.27
2023-05-24T05:57:01.720Z,20.29
2023-05-24T05:58:00.822Z,20.27
2023-05-24T05:59:01.853Z,20.30
2023-05-24T06:00:00.967Z,20.29
2023-05-24T06:01:00.977Z,20.34
2023-05-24T06:02:00.935Z,20.29
2023-05-24T06:03:01.028Z,20.30
2023-05-24T06:04:01.067Z,20.30
2023-05-24T06:05:00.988Z,20.33
2023-05-24T06:06:01.173Z,20.32
2023-05-24T06:07:01.094Z,20.36
2023-05-24T06:08:01.755Z,20.40
2023-05-24T06:09:01.768Z,20.32
2023-05-24T06:10:01.118Z,20.34
2023-05-24T06:11:01.209Z,20.15
2023-05-24T06:12:01.212Z,20.32
2023-05-24T06:13:01.246Z,20.32
2023-05-24T06:14:01.163Z,20.36
2023-05-24T06:15:01.173Z,20.27
2023-05-24T06:16:01.212Z,20.32
2023-05-24T06:17:01.194Z,20.34
2023-05-24T06:18:01.299Z,20.39
2023-05-24T06:19:06.277Z,20.39
2023-05-24T06:20:01.358Z,20.43
2023-05-24T06:21:01.273Z,20.46
2023-05-24T06:22:01.341Z,20.46
2023-05-24T06:23:01.424Z,20.47
2023-05-24T06:24:01.458Z,20.44
2023-05-24T06:25:03.309Z,20.50
2023-05-24T06:26:03.446Z,20.42
2023-05-24T06:27:02.792Z,20.40
2023-05-24T06:28:02.459Z,20.42
2023-05-24T06:29:02.579Z,20.50
2023-05-24T06:30:01.443Z,20.50
2023-05-24T06:31:01.357Z,20.50
2023-05-24T06:32:01.523Z,20.57
2023-05-24T06:33:01.446Z,20.56
2023-05-24T06:34:04.429Z,20.57
2023-05-24T06:35:01.297Z,20.60
2023-05-24T06:36:02.273Z,20.63
2023-05-24T06:37:02.245Z,20.57
2023-05-24T06:38:01.317Z,20.64
2023-05-24T06:39:01.328Z,20.63
2023-05-24T06:40:01.420Z,20.66
2023-05-24T06:41:01.285Z,20.71
2023-05-24T06:42:01.324Z,20.71
2023-05-24T06:43:01.272Z,20.80
2023-05-24T06:44:01.279Z,20.81
2023-05-24T06:45:01.791Z,20.80
2023-05-24T06:46:01.326Z,20.78
2023-05-24T06:47:01.317Z,20.80
2023-05-24T06:48:01.323Z,20.84
2023-05-24T06:49:01.385Z,20.84
2023-05-24T06:50:01.228Z,20.87
2023-05-24T06:51:01.284Z,20.88
2023-05-24T06:52:01.299Z,20.87
2023-05-24T06:53:01.827Z,20.81
2023-05-24T06:54:01.178Z,20.81
2023-05-24T06:55:01.154Z,20.78
2023-05-24T06:56:01.228Z,20.85
2023-05-24T06:57:01.218Z,20.83
2023-05-24T06:58:01.146Z,20.85
2023-05-24T06:59:01.189Z,20.87
2023-05-24T07:00:01.129Z,20.80
2023-05-24T07:01:01.293Z,20.75
2023-05-24T07:02:03.651Z,20.74
2023-05-24T07:03:01.138Z,20.77
2023-05-24T07:04:01.179Z,20.75
2023-05-24T07:05:01.180Z,20.77
2023-05-24T07:06:01.117Z,20.81
2023-05-24T07:07:01.071Z,20.85
2023-05-24T07:08:01.092Z,20.85
2023-05-24T07:09:01.109Z,20.85
2023-05-24T07:10:01.084Z,20.85
2023-05-24T07:11:01.091Z,20.93
2023-05-24T07:12:01.053Z,20.97
2023-05-24T07:13:01.060Z,21.01
2023-05-24T07:14:01.048Z,21.05
2023-05-24T07:15:01.103Z,21.09
2023-05-24T07:16:01.051Z,21.12
2023-05-24T07:17:01.137Z,21.11
2023-05-24T07:18:01.050Z,21.19
2023-05-24T07:19:03.891Z,21.25
2023-05-24T07:20:01.110Z,21.32
2023-05-24T07:21:01.114Z,21.39
2023-05-24T07:22:01.086Z,21.44
2023-05-24T07:23:00.960Z,21.38
2023-05-24T07:24:01.038Z,21.50
2023-05-24T07:25:00.994Z,21.48
2023-05-24T07:26:00.951Z,21.52
2023-05-24T07:27:00.988Z,21.46
2023-05-24T07:28:00.929Z,21.49
2023-05-24T07:29:00.948Z,21.53
2023-05-24T07:30:00.937Z,21.56
2023-05-24T07:31:01.001Z,21.63
2023-05-24T07:32:01.033Z,21.72
2023-05-24T07:33:01.838Z,21.76
2023-05-24T07:34:00.966Z,21.82
2023-05-24T07:35:00.990Z,21.82
2023-05-24T07:36:00.873Z,21.89
2023-05-24T07:37:00.986Z,21.93
2023-05-24T07:38:00.865Z,21.99
2023-05-24T07:39:01.882Z,22.06
2023-05-24T07:40:00.869Z,22.07
2023-05-24T07:41:00.869Z,22.04
2023-05-24T07:42:00.861Z,22.00
2023-05-24T07:43:00.882Z,22.06
2023-05-24T07:44:00.822Z,21.86
2023-05-24T07:45:00.889Z,22.00
2023-05-24T07:46:00.829Z,22.06
2023-05-24T07:47:00.809Z,21.96
2023-05-24T07:48:00.848Z,22.03
2023-05-24T07:49:00.828Z,22.06
2023-05-24T07:50:00.787Z,22.03
2023-05-24T07:51:00.848Z,22.08
2023-05-24T07:52:00.828Z,22.10
2023-05-24T07:53:00.786Z,22.17
2023-05-24T07:54:00.765Z,22.10
2023-05-24T07:55:00.776Z,22.01
2023-05-24T07:56:00.742Z,22.00
2023-05-24T07:57:00.767Z,22.03
2023-05-24T07:58:00.816Z,21.97
2023-05-24T07:59:00.794Z,21.96
2023-05-24T08:00:00.816Z,21.95
2023-05-24T08:01:00.729Z,21.93
2023-05-24T08:02:00.706Z,21.90
2023-05-24T08:03:00.805Z,21.80
2023-05-24T08:04:00.864Z,21.75
2023-05-24T08:05:00.713Z,21.85
2023-05-24T08:06:00.675Z,21.80
2023-05-24T08:07:00.736Z,21.82
2023-05-24T08:08:00.662Z,21.87
2023-05-24T08:09:00.823Z,21.89
2023-05-24T08:10:00.653Z,21.87
2023-05-24T08:11:00.763Z,21.89
2023-05-24T08:12:01.804Z,21.85
2023-05-24T08:13:00.652Z,21.93
2023-05-24T08:14:00.663Z,22.03
2023-05-24T08:15:00.627Z,22.04
2023-05-24T08:16:00.734Z,22.07
2023-05-24T08:17:00.722Z,22.08
2023-05-24T08:18:00.758Z,22.14
2023-05-24T08:19:00.868Z,22.20
2023-05-24T08:20:00.870Z,22.16
2023-05-24T08:21:00.793Z,22.14
2023-05-24T08:22:00.882Z,22.08
2023-05-24T08:23:00.848Z,22.16
2023-05-24T08:24:00.851Z,22.20
2023-05-24T08:25:00.885Z,22.23
2023-05-24T08:26:00.887Z,22.31
2023-05-24T08:27:00.969Z,22.34
2023-05-24T08:28:01.194Z,22.33
2023-05-24T08:29:00.925Z,22.34
2023-05-24T08:30:00.918Z,22.24
2023-05-24T08:31:01.862Z,22.28
2023-05-24T08:32:01.407Z,22.31
2023-05-24T08:33:01.065Z,22.25
2023-05-24T08:34:00.995Z,22.16
2023-05-24T08:35:14.787Z,22.24
2023-05-24T08:36:02.006Z,22.25
2023-05-24T08:37:01.089Z,22.27
2023-05-24T08:38:01.018Z,22.34
2023-05-24T08:39:01.021Z,22.38
2023-05-24T08:40:01.038Z,22.36
2023-05-24T08:41:01.378Z,22.36
2023-05-24T08:43:00.955Z,22.43
2023-05-24T08:44:01.016Z,22.44
2023-05-24T08:45:00.988Z,22.46
2023-05-24T08:46:01.359Z,22.43
2023-05-24T08:47:01.844Z,22.34
2023-05-24T08:48:01.050Z,22.44
2023-05-24T08:49:00.985Z,22.46
2023-05-24T08:50:00.926Z,22.50
2023-05-24T08:51:00.900Z,22.38
2023-05-24T08:52:01.322Z,22.33
2023-05-24T08:53:00.883Z,22.40
2023-05-24T08:54:00.978Z,22.44
2023-05-24T08:55:00.870Z,22.48
2023-05-24T08:56:01.352Z,22.57
2023-05-24T08:57:00.917Z,22.38
2023-05-24T08:58:00.939Z,22.23
2023-05-24T08:59:00.901Z,22.40
2023-05-24T09:00:00.970Z,22.41
2023-05-24T09:01:00.947Z,22.52
2023-05-24T09:02:00.937Z,22.52
2023-05-24T09:03:00.850Z,22.44
2023-05-24T09:04:00.855Z,22.62
2023-05-24T09:05:00.914Z,22.54
2023-05-24T09:06:00.944Z,22.71
2023-05-24T09:07:00.783Z,22.81
2023-05-24T09:08:00.802Z,22.91
2023-05-24T09:09:00.789Z,23.01
2023-05-24T09:10:00.782Z,23.18
2023-05-24T09:11:00.970Z,23.23
2023-05-24T09:12:00.776Z,23.30
2023-05-24T09:13:00.846Z,23.46
2023-05-24T09:14:00.764Z,23.56
2023-05-24T09:15:01.324Z,23.59
2023-05-24T09:16:00.843Z,23.48
2023-05-24T09:17:00.769Z,23.36
2023-05-24T09:18:00.790Z,23.49
2023-05-24T09:19:00.715Z,23.27
2023-05-24T09:20:00.829Z,22.98
2023-05-24T09:21:00.755Z,23.13
2023-05-24T09:22:00.787Z,23.19
2023-05-24T09:23:00.747Z,23.40
2023-05-24T09:24:00.698Z,23.42
2023-05-24T09:25:00.716Z,23.33
2023-05-24T09:26:00.748Z,22.97
2023-05-24T09:27:00.707Z,22.76
2023-05-24T09:28:00.677Z,22.81
2023-05-24T09:29:00.678Z,22.74
2023-05-24T09:30:00.649Z,22.72
2023-05-24T09:31:00.705Z,22.89
2023-05-24T09:32:00.710Z,23.08
2023-05-24T09:33:00.841Z,23.16
2023-05-24T09:34:00.718Z,23.19
2023-05-24T09:35:00.738Z,22.88
2023-05-24T09:36:00.833Z,22.64
2023-05-24T09:37:01.373Z,22.55
2023-05-24T09:38:00.958Z,22.24
2023-05-24T09:39:01.242Z,21.96
2023-05-24T09:40:01.000Z,21.97
2023-05-24T09:41:01.048Z,21.95
2023-05-24T09:42:01.066Z,22.13
2023-05-24T09:43:01.231Z,21.60
2023-05-24T09:44:01.338Z,21.73
2023-05-24T09:45:01.231Z,21.57
2023-05-24T09:46:01.319Z,21.73
2023-05-24T09:47:01.610Z,21.87
2023-05-24T09:48:01.461Z,21.99
2023-05-24T09:49:01.378Z,22.08
2023-05-24T09:50:02.351Z,22.13
2023-05-24T09:51:01.504Z,22.16
2023-05-24T09:52:01.962Z,22.17
2023-05-24T09:53:01.688Z,22.07
2023-05-24T09:54:01.710Z,21.93
2023-05-24T09:55:01.738Z,22.06
2023-05-24T09:56:01.967Z,22.18
2023-05-24T09:57:03.516Z,22.23
2023-05-24T09:58:01.835Z,22.20
2023-05-24T09:59:01.844Z,22.27
2023-05-24T10:00:01.901Z,22.28
2023-05-24T10:01:01.868Z,22.33
2023-05-24T10:02:01.894Z,22.03
2023-05-24T10:03:01.874Z,22.18
2023-05-24T10:04:01.948Z,22.33
2023-05-24T10:05:01.830Z,22.18
2023-05-24T10:06:01.777Z,22.23
2023-05-24T10:07:01.874Z,22.24
2023-05-24T10:08:01.767Z,22.31
2023-05-24T10:09:01.808Z,22.24
2023-05-24T10:10:01.816Z,22.13
2023-05-24T10:11:01.792Z,21.86
2023-05-24T10:12:01.749Z,21.82
2023-05-24T10:13:01.755Z,21.01
2023-05-24T10:14:01.734Z,21.39
2023-05-24T10:15:01.803Z,21.55
2023-05-24T10:16:01.707Z,21.59
2023-05-24T10:17:01.861Z,21.01
2023-05-24T10:18:01.884Z,20.98
2023-05-24T10:19:01.677Z,21.11
2023-05-24T10:20:01.773Z,20.88
2023-05-24T10:21:02.002Z,20.90
2023-05-24T10:22:01.669Z,20.81
2023-05-24T10:23:02.160Z,21.06
2023-05-24T10:24:01.655Z,21.08
2023-05-24T10:25:01.657Z,21.19
2023-05-24T10:26:01.650Z,21.18
2023-05-24T10:27:01.652Z,21.34
2023-05-24T10:28:01.667Z,21.18
2023-05-24T10:29:01.645Z,21.06
2023-05-24T10:30:01.682Z,21.14
2023-05-24T10:31:01.793Z,20.99
2023-05-24T10:32:02.375Z,21.22
2023-05-24T10:33:01.687Z,21.05
2023-05-24T10:34:07.580Z,21.21
2023-05-24T10:35:02.604Z,20.90
2023-05-24T10:36:01.571Z,21.12
2023-05-24T10:37:01.892Z,20.78
2023-05-24T10:38:01.564Z,20.53
2023-05-24T10:39:01.597Z,20.57
2023-05-24T10:40:01.524Z,20.81
2023-05-24T10:41:01.684Z,20.74
2023-05-24T10:42:01.532Z,20.87
2023-05-24T10:43:01.520Z,20.93
2023-05-24T10:44:09.883Z,21.12
2023-05-24T10:45:02.516Z,21.21
2023-05-24T10:46:01.613Z,21.25
2023-05-24T10:47:01.479Z,21.05
2023-05-24T10:48:01.529Z,21.01
2023-05-24T10:49:01.525Z,20.74
2023-05-24T10:50:01.484Z,20.70
2023-05-24T10:51:01.446Z,20.60
2023-05-24T10:52:01.447Z,20.57
2023-05-24T10:53:01.448Z,20.50
2023-05-24T10:54:01.562Z,20.56
2023-05-24T10:55:04.401Z,20.26
2023-05-24T10:56:01.458Z,20.36
2023-05-24T10:57:01.421Z,20.23
2023-05-24T10:58:02.339Z,20.32
2023-05-24T10:59:01.400Z,20.22
2023-05-24T11:00:01.430Z,20.33
2023-05-24T11:01:01.394Z,20.39
2023-05-24T11:02:01.454Z,20.20
2023-05-24T11:03:01.579Z,20.11
2023-05-24T11:04:01.564Z,20.00
2023-05-24T11:05:01.394Z,19.86
2023-05-24T11:06:01.444Z,19.24
2023-05-24T11:07:01.891Z,19.24
2023-05-24T11:08:01.346Z,19.06
2023-05-24T11:09:01.349Z,18.94
2023-05-24T11:10:01.369Z,18.64
2023-05-24T11:11:11.505Z,18.48
2023-05-24T11:12:02.857Z,18.39
2023-05-24T11:13:01.541Z,18.42
2023-05-24T11:14:01.340Z,18.22
2023-05-24T11:15:01.361Z,18.25
2023-05-24T11:16:01.306Z,18.13
2023-05-24T11:17:01.317Z,17.80
2023-05-24T11:18:01.387Z,17.67
2023-05-24T11:19:01.284Z,17.80
2023-05-24T11:20:01.412Z,17.63
2023-05-24T11:21:01.241Z,17.64
2023-05-24T11:41:48.163Z,17.74
2023-05-24T11:42:48.129Z,17.99
2023-05-24T11:43:48.128Z,17.95
2023-05-24T11:44:48.120Z,18.09
2023-05-24T11:45:48.157Z,18.04
2023-05-24T11:46:48.126Z,18.05
2023-05-24T11:47:48.147Z,18.50
2023-05-24T11:48:48.147Z,18.55
2023-05-24T11:49:48.096Z,18.86
2023-05-24T11:50:49.881Z,19.10
2023-05-24T11:53:07.500Z,19.42
2023-05-24T11:54:07.507Z,19.48
2023-05-24T11:55:07.469Z,19.50
2023-05-24T11:56:07.458Z,19.76
2023-05-24T11:57:07.453Z,19.93
2023-05-24T11:58:07.453Z,20.19
2023-05-24T11:59:07.431Z,20.37
2023-05-24T12:00:07.464Z,20.62
2023-05-24T12:01:07.494Z,20.74
2023-05-24T12:02:07.520Z,20.93
2023-05-24T12:03:07.620Z,21.08
2023-05-24T12:04:07.645Z,21.22
2023-05-24T12:05:07.451Z,21.29
2023-05-24T12:06:07.404Z,21.36
2023-05-24T12:07:07.408Z,21.45
2023-05-24T12:08:08.370Z,21.49
2023-05-24T12:09:07.368Z,21.57
2023-05-24T12:10:07.378Z,21.62
2023-05-24T12:11:07.446Z,21.65
2023-05-24T12:12:07.415Z,21.65
2023-05-24T12:13:07.421Z,21.73
2023-05-24T12:14:07.537Z,21.77
2023-05-24T12:15:07.615Z,21.82
2023-05-24T12:16:08.319Z,21.82
2023-05-24T12:17:07.537Z,21.85
2023-05-24T12:18:07.596Z,21.90
2023-05-24T12:19:16.996Z,21.92
2023-05-24T12:20:08.683Z,21.92
2023-05-24T12:21:07.597Z,22.00
2023-05-24T12:22:07.961Z,22.06
2023-05-24T12:23:07.540Z,22.13
2023-05-24T12:24:07.564Z,22.13
2023-05-24T12:25:07.642Z,22.17
2023-05-24T12:26:07.525Z,22.17
2023-05-24T12:27:08.226Z,22.13
2023-05-24T12:28:07.541Z,22.10
2023-05-24T12:29:07.501Z,22.14
2023-05-24T12:30:07.526Z,22.11
2023-05-24T12:31:07.520Z,22.16
2023-05-24T12:32:07.478Z,22.08
2023-05-24T12:33:07.574Z,22.14
2023-05-24T12:34:07.491Z,22.18
2023-05-24T12:35:07.516Z,22.17
2023-05-24T12:36:07.583Z,22.20
2023-05-24T12:37:07.627Z,22.24
2023-05-24T12:38:07.667Z,22.25
2023-05-24T12:39:07.707Z,22.25
2023-05-24T12:40:07.866Z,22.20
2023-05-24T12:41:13.371Z,22.28
2023-05-24T12:42:08.865Z,22.31
2023-05-24T12:43:07.780Z,22.27
2023-05-24T12:44:07.831Z,22.21
2023-05-24T12:45:07.843Z,22.16
2023-05-24T12:46:07.793Z,22.23
2023-05-24T12:47:08.155Z,22.18
2023-05-24T12:48:07.804Z,22.17
2023-05-24T12:49:07.744Z,22.21
2023-05-24T12:50:07.750Z,22.20
2023-05-24T12:51:07.809Z,22.16
2023-05-24T12:52:07.869Z,22.21
2023-05-24T12:53:07.905Z,22.13
2023-05-24T12:54:07.981Z,22.14
2023-05-24T12:55:07.992Z,22.06
2023-05-24T12:56:08.044Z,22.10
2023-05-24T12:57:08.095Z,22.08
2023-05-24T12:58:08.101Z,22.06
2023-05-24T12:59:08.069Z,21.99
2023-05-24T13:00:08.081Z,21.96
2023-05-24T13:01:08.083Z,22.01
2023-05-24T13:02:08.055Z,21.90
2023-05-24T13:03:08.159Z,22.01
2023-05-24T13:04:08.187Z,21.96
2023-05-24T13:05:08.274Z,21.89
2023-05-24T13:06:08.109Z,21.92
2023-05-24T13:07:08.276Z,21.85
2023-05-24T13:08:08.271Z,21.97
2023-05-24T13:09:08.203Z,21.95
2023-05-24T13:10:08.237Z,21.99
2023-05-24T13:11:08.233Z,21.92
2023-05-24T13:12:08.286Z,21.89
2023-05-24T13:13:08.306Z,21.79
2023-05-24T13:14:08.365Z,21.83
2023-05-24T13:15:08.342Z,21.76
2023-05-24T13:16:08.348Z,21.85
2023-05-24T13:17:08.385Z,21.85
2023-05-24T13:18:08.504Z,21.83
2023-05-24T13:19:08.406Z,21.77
2023-05-24T13:20:08.477Z,21.76
2023-05-24T13:21:10.624Z,21.75
2023-05-24T13:22:08.492Z,21.69
2023-05-24T13:23:08.468Z,21.67
2023-05-24T13:24:08.460Z,21.53
2023-05-24T13:25:08.465Z,21.55
2023-05-24T13:26:08.454Z,21.50
2023-05-24T13:27:08.448Z,21.55
2023-05-24T13:28:08.414Z,21.46
2023-05-24T13:29:32.382Z,21.35
2023-05-24T13:30:09.483Z,21.31
2023-05-24T13:31:08.488Z,21.39
2023-05-24T13:32:08.432Z,21.39
2023-05-24T13:33:08.464Z,21.34